Time;durP1;ratioP1;P1;durP2;ratioP2;P2;SDS_P1;SDS_P2;PMS_P1;PMS_P2;Temp;Humidity;BMP_temperature;BMP_pressure;BME280_temperature;BME280_humidity;BME280_pressure;Samples;Min_cycle;Max_cycle;Signal;HPM_P1;HPM_P2
2021/11/01 00:01:43;;;;;;;12.97;11.93;;;9.90;99.90;;;;;;5000473;28;20209;-81
2021/11/01 00:04:10;;;;;;;13.67;12.67;;;9.90;99.90;;;;;;5001515;28;20671;-82
2021/11/01 00:06:37;;;;;;;13.67;12.37;;;9.80;99.90;;;;;;5002991;28;20658;-80
2021/11/01 00:09:04;;;;;;;13.50;12.43;;;9.80;99.90;;;;;;5001563;28;20690;-80
2021/11/01 00:11:31;;;;;;;12.60;11.60;;;9.80;99.90;;;;;;5001832;28;20193;-81
2021/11/01 00:13:58;;;;;;;12.53;11.63;;;9.80;99.90;;;;;;5006230;28;20197;-80
2021/11/01 00:16:27;;;;;;;13.03;12.03;;;9.70;99.90;;;;;;4999094;28;20225;-81
2021/11/01 00:18:54;;;;;;;12.60;11.70;;;9.70;99.90;;;;;;5004710;28;20220;-81
2021/11/01 00:21:21;;;;;;;12.80;11.90;;;9.70;99.90;;;;;;5001745;28;20196;-80
2021/11/01 00:23:49;;;;;;;13.40;12.40;;;9.70;99.90;;;;;;5005147;28;20204;-80
2021/11/01 00:26:16;;;;;;;13.07;12.17;;;9.70;99.90;;;;;;5002672;28;20197;-80
2021/11/01 00:28:44;;;;;;;12.37;11.50;;;9.80;99.90;;;;;;5004669;28;20783;-80
2021/11/01 00:31:11;;;;;;;12.73;11.63;;;9.80;99.90;;;;;;5001696;28;20581;-80
2021/11/01 00:33:40;;;;;;;12.27;11.47;;;9.90;99.90;;;;;;4997354;28;20213;-80
2021/11/01 00:36:07;;;;;;;13.37;12.47;;;9.90;99.90;;;;;;5000677;28;20243;-81
2021/11/01 00:38:34;;;;;;;12.93;12.03;;;9.90;99.90;;;;;;5002376;28;20698;-80
2021/11/01 00:41:02;;;;;;;12.30;11.50;;;10.00;99.90;;;;;;5003729;28;20199;-82
2021/11/01 00:43:29;;;;;;;12.93;12.03;;;10.00;99.90;;;;;;5002047;28;20233;-81
2021/11/01 00:45:56;;;;;;;8.43;7.83;;;10.00;99.90;;;;;;5003777;28;20677;-80
2021/11/01 00:48:23;;;;;;;5.70;5.10;;;10.10;99.90;;;;;;5004170;28;20224;-80
2021/11/01 00:50:51;;;;;;;10.00;9.20;;;10.10;99.90;;;;;;5005591;28;20254;-80
2021/11/01 00:53:18;;;;;;;13.30;12.30;;;10.20;99.90;;;;;;5005486;28;20673;-81
2021/11/01 00:55:51;;;;;;;7.33;6.73;;;10.30;99.90;;;;;;5000536;28;20218;-82
2021/11/01 00:58:21;;;;;;;11.70;10.80;;;10.30;99.90;;;;;;4999795;28;20673;-80
2021/11/01 01:00:48;;;;;;;12.33;11.53;;;10.40;99.90;;;;;;5002739;28;20247;-81
2021/11/01 01:03:16;;;;;;;11.60;10.80;;;10.40;99.90;;;;;;5000735;28;20209;-80
2021/11/01 01:05:44;;;;;;;12.17;11.30;;;10.50;99.90;;;;;;5004036;28;20684;-81
2021/11/01 01:08:13;;;;;;;12.10;11.30;;;10.50;99.90;;;;;;4999897;28;20200;-80
2021/11/01 01:10:41;;;;;;;12.17;11.37;;;10.50;99.90;;;;;;4997172;28;20217;-80
2021/11/01 01:13:09;;;;;;;12.50;11.60;;;10.50;99.90;;;;;;5005241;28;20615;-81
2021/11/01 01:15:41;;;;;;;12.17;11.37;;;10.50;99.90;;;;;;4999064;28;20284;-80
2021/11/01 01:18:13;;;;;;;13.57;12.57;;;10.50;99.90;;;;;;5001214;28;20201;-80
2021/11/01 01:20:40;;;;;;;12.67;11.77;;;10.50;99.90;;;;;;5000808;28;20622;-81
2021/11/01 01:23:07;;;;;;;8.73;8.03;;;10.50;99.90;;;;;;5001573;28;20190;-80
2021/11/01 01:25:55;;;;;;;6.30;5.20;;;10.50;99.90;;;;;;5001472;28;20205;-81
2021/11/01 01:28:22;;;;;;;5.93;4.63;;;10.50;99.90;;;;;;4999898;28;20221;-80
2021/11/01 01:30:49;;;;;;;5.33;4.43;;;10.50;99.90;;;;;;5002413;28;20259;-81
2021/11/01 01:33:17;;;;;;;6.00;5.07;;;10.50;99.90;;;;;;5000929;28;20585;-80
2021/11/01 01:35:44;;;;;;;4.87;4.37;;;10.50;99.90;;;;;;4999017;28;20201;-81
2021/11/01 01:38:13;;;;;;;5.83;5.10;;;10.50;99.90;;;;;;5000049;28;20252;-81
2021/11/01 01:40:42;;;;;;;5.40;4.90;;;10.50;99.90;;;;;;5006340;28;20193;-81
2021/11/01 01:43:09;;;;;;;5.53;4.73;;;10.50;99.90;;;;;;5001384;28;20219;-82
2021/11/01 01:45:36;;;;;;;12.00;11.10;;;10.60;99.90;;;;;;5004755;28;20197;-81
2021/11/01 01:48:04;;;;;;;12.80;11.97;;;10.70;99.90;;;;;;4995393;28;20193;-81
2021/11/01 01:50:31;;;;;;;12.03;11.23;;;10.70;99.90;;;;;;5002475;28;20612;-81
2021/11/01 01:52:58;;;;;;;12.33;11.43;;;10.90;99.90;;;;;;5003352;28;20193;-81
2021/11/01 01:55:25;;;;;;;12.87;11.97;;;10.90;99.90;;;;;;5003501;28;20617;-81
2021/11/01 01:57:53;;;;;;;12.03;11.23;;;11.00;99.90;;;;;;5004744;28;20318;-81
2021/11/01 02:00:33;;;;;;;6.40;5.03;;;11.10;99.90;;;;;;5004661;28;20251;-81
2021/11/01 02:03:01;;;;;;;4.40;4.00;;;11.10;99.90;;;;;;5000498;28;20197;-82
2021/11/01 02:05:34;;;;;;;4.47;4.07;;;11.20;99.90;;;;;;4999224;28;20202;-80
2021/11/01 02:08:07;;;;;;;5.07;4.10;;;11.30;99.90;;;;;;5000202;28;20201;-81
2021/11/01 02:10:44;;;;;;;7.87;7.37;;;11.40;99.90;;;;;;5003630;28;20280;-82
2021/11/01 02:13:18;;;;;;;4.70;4.30;;;11.50;99.90;;;;;;5000552;28;20264;-81
2021/11/01 02:15:49;;;;;;;5.17;4.67;;;11.50;99.90;;;;;;5004364;28;20573;-81
2021/11/01 02:18:17;;;;;;;7.03;5.10;;;11.50;99.90;;;;;;5000579;28;20264;-80
2021/11/01 02:20:53;;;;;;;6.43;5.83;;;11.50;99.90;;;;;;5001477;28;20202;-81
2021/11/01 02:23:26;;;;;;;7.07;6.37;;;11.60;99.90;;;;;;4999474;28;20666;-80
2021/11/01 02:25:56;;;;;;;6.37;5.77;;;11.60;99.90;;;;;;4994427;28;20262;-81
2021/11/01 02:28:27;;;;;;;6.60;6.00;;;11.60;99.90;;;;;;5004354;28;20228;-80
2021/11/01 02:30:54;;;;;;;6.10;5.50;;;11.70;99.90;;;;;;4989469;28;20202;-80
2021/11/01 02:33:23;;;;;;;6.17;5.60;;;11.70;99.90;;;;;;4999272;28;20209;-80
2021/11/01 02:35:51;;;;;;;5.47;4.97;;;11.70;99.90;;;;;;5001782;28;20550;-81
2021/11/01 02:38:19;;;;;;;5.00;4.60;;;11.70;99.90;;;;;;5000960;28;20277;-80
2021/11/01 02:40:46;;;;;;;6.30;5.83;;;11.70;99.90;;;;;;5000854;28;20199;-80
2021/11/01 02:43:15;;;;;;;10.97;10.27;;;11.80;99.90;;;;;;5000212;28;20856;-80
2021/11/01 02:45:42;;;;;;;5.73;5.20;;;11.80;99.90;;;;;;5004574;28;20233;-80
2021/11/01 02:48:09;;;;;;;4.60;4.20;;;11.80;99.90;;;;;;5002553;28;20252;-81
2021/11/01 02:50:37;;;;;;;14.00;13.10;;;11.80;99.90;;;;;;4999680;28;20201;-80
2021/11/01 02:53:04;;;;;;;7.83;7.20;;;11.70;99.90;;;;;;5000119;28;20195;-81
2021/11/01 02:55:31;;;;;;;7.63;7.03;;;11.70;99.90;;;;;;5000699;28;20690;-81
2021/11/01 02:57:58;;;;;;;8.23;7.33;;;11.60;99.90;;;;;;4998813;28;20222;-81
2021/11/01 03:00:28;;;;;;;7.60;6.90;;;11.60;99.90;;;;;;4999845;28;20773;-81
2021/11/01 03:02:57;;;;;;;7.50;6.80;;;11.60;99.90;;;;;;5000364;28;20224;-81
2021/11/01 03:05:25;;;;;;;7.00;6.40;;;11.60;99.90;;;;;;5004364;28;20203;-80
2021/11/01 03:07:54;;;;;;;13.23;12.33;;;11.60;99.90;;;;;;4989163;28;20197;-79
2021/11/01 03:10:22;;;;;;;8.20;7.50;;;11.60;99.90;;;;;;4995827;28;20226;-81
2021/11/01 03:12:51;;;;;;;6.63;6.13;;;11.60;99.90;;;;;;4999624;28;20239;-81
2021/11/01 03:15:21;;;;;;;6.77;6.27;;;11.60;99.90;;;;;;4999363;28;20714;-80
2021/11/01 03:17:52;;;;;;;8.20;7.40;;;11.60;99.90;;;;;;5003848;28;20267;-80
2021/11/01 03:20:24;;;;;;;10.60;9.80;;;11.60;99.90;;;;;;5008198;28;20226;-80
2021/11/01 03:22:55;;;;;;;12.67;11.77;;;11.60;99.90;;;;;;5007830;28;20405;-81
2021/11/01 03:25:32;;;;;;;13.70;12.80;;;11.60;99.90;;;;;;4999158;28;20199;-81
2021/11/01 03:28:02;;;;;;;11.70;10.90;;;11.60;99.90;;;;;;5009161;28;20575;-81
2021/11/01 03:30:30;;;;;;;12.47;11.57;;;11.60;99.90;;;;;;5001440;28;20306;-81
2021/11/01 03:32:59;;;;;;;8.57;7.93;;;11.60;99.90;;;;;;4998302;28;20202;-80
2021/11/01 03:35:28;;;;;;;11.87;11.07;;;11.60;99.90;;;;;;4995187;28;20660;-81
2021/11/01 03:37:58;;;;;;;13.60;12.80;;;11.60;99.90;;;;;;5006731;28;20613;-81
2021/11/01 03:40:28;;;;;;;13.47;12.67;;;11.60;99.90;;;;;;5002115;28;20708;-81
2021/11/01 03:42:56;;;;;;;13.50;12.50;;;11.60;99.90;;;;;;5007607;28;20198;-81
2021/11/01 03:45:24;;;;;;;12.93;12.13;;;11.60;99.90;;;;;;5005973;28;20207;-81
2021/11/01 03:47:53;;;;;;;12.80;12.10;;;11.70;99.90;;;;;;5005506;28;20208;-81
2021/11/01 03:50:30;;;;;;;11.90;11.10;;;11.60;99.90;;;;;;5006618;28;20253;-81
2021/11/01 03:52:57;;;;;;;11.70;11.00;;;11.70;99.90;;;;;;5003834;28;20203;-81
2021/11/01 03:55:29;;;;;;;11.70;11.10;;;11.60;99.90;;;;;;5008216;28;20202;-81
2021/11/01 03:57:56;;;;;;;11.73;11.03;;;11.60;99.90;;;;;;5003096;28;20221;-81
2021/11/01 04:00:26;;;;;;;12.17;11.47;;;11.60;99.90;;;;;;5008057;28;20681;-81
2021/11/01 04:02:54;;;;;;;12.03;11.33;;;11.60;99.90;;;;;;5009639;28;20201;-81
2021/11/01 04:05:23;;;;;;;12.20;11.50;;;11.60;99.90;;;;;;5017834;28;20204;-82
2021/11/01 04:07:50;;;;;;;12.70;11.90;;;11.60;99.90;;;;;;5015821;28;20225;-81
2021/11/01 04:10:17;;;;;;;12.00;11.30;;;11.60;99.90;;;;;;5013394;28;20635;-79
2021/11/01 04:12:45;;;;;;;12.57;11.73;;;11.50;99.90;;;;;;5007268;28;20281;-80
2021/11/01 04:15:14;;;;;;;11.80;11.20;;;11.50;99.90;;;;;;5018414;28;20240;-80
2021/11/01 04:17:45;;;;;;;12.47;11.77;;;11.50;99.90;;;;;;4998566;28;20289;-79
2021/11/01 04:20:28;;;;;;;12.30;11.60;;;11.50;99.90;;;;;;5009136;28;20225;-80
2021/11/01 04:23:00;;;;;;;11.83;11.10;;;11.50;99.90;;;;;;5007051;28;20200;-79
2021/11/01 04:25:31;;;;;;;11.80;11.10;;;11.50;99.90;;;;;;5006897;28;20198;-79
2021/11/01 04:28:00;;;;;;;11.90;11.30;;;11.40;99.90;;;;;;5004327;28;20338;-79
2021/11/01 04:30:32;;;;;;;12.53;11.80;;;11.40;99.90;;;;;;5009315;28;20202;-80
2021/11/01 04:33:03;;;;;;;12.03;11.33;;;11.40;99.90;;;;;;5002503;28;20250;-79
2021/11/01 04:35:34;;;;;;;11.90;11.27;;;11.40;99.90;;;;;;5010059;28;20200;-79
2021/11/01 04:38:06;;;;;;;12.57;11.87;;;11.40;99.90;;;;;;5001963;28;20357;-79
2021/11/01 04:40:50;;;;;;;12.40;11.70;;;11.40;99.90;;;;;;5008950;28;20202;-78
2021/11/01 04:54:15;;;;;;;12.23;11.63;;;11.30;99.90;;;;;;5002195;28;20200;-79
2021/11/01 04:56:43;;;;;;;12.17;11.50;;;11.30;99.90;;;;;;5007119;28;20209;-79
2021/11/01 04:59:10;;;;;;;12.40;11.70;;;11.30;99.90;;;;;;5000179;28;20262;-79
2021/11/01 05:01:39;;;;;;;12.50;11.80;;;11.30;99.90;;;;;;4997289;28;20207;-79
2021/11/01 05:04:07;;;;;;;12.23;11.53;;;11.20;99.90;;;;;;4993815;28;20313;-79
2021/11/01 05:06:35;;;;;;;11.97;11.27;;;11.20;99.90;;;;;;4994991;28;20257;-79
2021/11/01 05:09:06;;;;;;;12.17;11.30;;;11.20;99.90;;;;;;5005620;28;20698;-79
2021/11/01 05:11:40;;;;;;;11.80;11.20;;;11.20;99.90;;;;;;5004026;28;20292;-78
2021/11/01 05:14:11;;;;;;;11.50;10.90;;;11.10;99.90;;;;;;5007124;28;20197;-78
2021/11/01 05:16:49;;;;;;;11.40;10.80;;;11.10;99.90;;;;;;4996360;28;20643;-79
2021/11/01 05:19:21;;;;;;;11.60;11.00;;;11.10;99.90;;;;;;4994712;28;20237;-79
2021/11/01 05:21:58;;;;;;;11.10;10.50;;;11.10;99.90;;;;;;4996252;28;20201;-79
2021/11/01 05:24:30;;;;;;;11.40;10.80;;;11.00;99.90;;;;;;4994872;28;20197;-80
2021/11/01 05:27:33;;;;;;;11.43;10.83;;;11.00;99.90;;;;;;4999397;28;20202;-79
2021/11/01 05:30:04;;;;;;;12.37;11.53;;;11.00;99.90;;;;;;4988189;28;20221;-80
2021/11/01 05:32:32;;;;;;;12.30;11.60;;;11.00;99.90;;;;;;4996480;28;20916;-79
2021/11/01 05:34:59;;;;;;;11.80;11.10;;;10.90;99.90;;;;;;4998178;28;20201;-80
2021/11/01 05:37:26;;;;;;;11.90;11.30;;;10.90;99.90;;;;;;4993618;28;20670;-79
2021/11/01 05:39:53;;;;;;;11.83;11.23;;;10.90;99.90;;;;;;4998263;28;20228;-80
2021/11/01 05:42:21;;;;;;;11.53;10.83;;;10.80;99.90;;;;;;4996947;28;20363;-79
2021/11/01 05:44:48;;;;;;;11.00;10.40;;;10.80;99.90;;;;;;4989354;28;20207;-79
2021/11/01 05:47:15;;;;;;;11.37;10.67;;;10.70;99.90;;;;;;4991898;28;20216;-79
2021/11/01 05:49:42;;;;;;;11.53;10.83;;;10.70;99.90;;;;;;5005254;28;20217;-79
2021/11/01 05:52:16;;;;;;;11.70;10.83;;;10.60;99.90;;;;;;5005791;28;20688;-79
2021/11/01 05:54:43;;;;;;;11.90;11.30;;;10.60;99.90;;;;;;4996664;28;20208;-78
2021/11/01 05:57:14;;;;;;;11.37;10.57;;;10.60;99.90;;;;;;5006037;28;20193;-78
2021/11/01 06:00:05;;;;;;;11.40;10.60;;;10.50;99.90;;;;;;5003572;28;20320;-78
2021/11/01 06:02:41;;;;;;;10.57;9.97;;;10.40;99.90;;;;;;5001934;28;20666;-80
2021/11/01 06:05:16;;;;;;;11.10;10.50;;;10.40;99.90;;;;;;5006295;28;20207;-79
2021/11/01 06:07:49;;;;;;;10.90;10.30;;;10.30;99.90;;;;;;4995267;28;20211;-81
2021/11/01 06:10:25;;;;;;;11.67;10.97;;;10.30;99.90;;;;;;4989464;28;20224;-79
2021/11/01 06:15:37;;;;;;;11.73;11.00;;;10.20;99.90;;;;;;4990703;28;20200;-80
2021/11/01 06:18:07;;;;;;;11.63;11.03;;;10.20;99.90;;;;;;4999045;28;20197;-79
2021/11/01 06:20:34;;;;;;;12.00;11.40;;;10.20;99.90;;;;;;5002012;28;20660;-77
2021/11/01 06:23:01;;;;;;;11.60;11.00;;;10.20;99.90;;;;;;5003171;28;20817;-79
2021/11/01 06:25:29;;;;;;;11.90;11.30;;;10.20;99.90;;;;;;5003513;28;20208;-79
2021/11/01 06:27:56;;;;;;;11.87;11.10;;;10.10;99.90;;;;;;4998913;28;20201;-77
2021/11/01 06:30:27;;;;;;;11.80;11.10;;;10.10;99.90;;;;;;4989894;28;20224;-78
2021/11/01 06:33:22;;;;;;;11.60;11.00;;;10.10;99.90;;;;;;4989007;28;20683;-79
2021/11/01 06:41:41;;;;;;;11.60;11.00;;;10.10;99.90;;;;;;5002304;28;20241;-79
2021/11/01 06:44:30;;;;;;;11.53;10.93;;;10.10;99.90;;;;;;4986213;28;20342;-78
2021/11/01 06:49:49;;;;;;;11.60;10.90;;;10.10;99.90;;;;;;5005826;28;20701;-79
2021/11/01 06:52:44;;;;;;;12.03;11.43;;;10.00;99.90;;;;;;5000263;28;20208;-78
2021/11/01 07:14:51;;;;;;;12.07;11.47;;;10.20;99.90;;;;;;5012358;28;20200;-82
2021/11/01 07:17:26;;;;;;;12.43;11.73;;;10.20;99.90;;;;;;4999731;28;20208;-82
2021/11/01 07:23:02;;;;;;;13.27;12.37;;;10.20;99.90;;;;;;5001482;28;20678;-82
2021/11/01 08:27:40;;;;;;;12.37;11.67;;;10.00;99.90;;;;;;5009430;28;20199;-81
2021/11/01 08:34:07;;;;;;;13.07;12.20;;;10.10;99.90;;;;;;5012336;28;20287;-81
2021/11/01 08:36:30;;;;;;;11.90;11.23;;;10.00;99.90;;;;;;5003285;28;20214;-81
2021/11/01 08:39:19;;;;;;;12.40;11.30;;;10.00;99.90;;;;;;4997229;28;20221;-83
2021/11/01 08:42:23;;;;;;;12.37;11.57;;;10.00;99.90;;;;;;5001457;28;20256;-80
2021/11/01 08:48:03;;;;;;;12.27;11.50;;;9.90;99.90;;;;;;4992355;28;20678;-81
2021/11/01 09:02:35;;;;;;;12.53;11.87;;;10.10;99.90;;;;;;4986396;28;20217;-81
2021/11/01 09:05:35;;;;;;;12.37;11.67;;;10.10;99.90;;;;;;5006938;28;20201;-79
2021/11/01 09:22:29;;;;;;;13.20;12.40;;;10.50;99.90;;;;;;4996025;28;20342;-79
2021/11/01 09:25:09;;;;;;;13.20;12.40;;;10.50;99.90;;;;;;4998280;28;20243;-79
2021/11/01 09:27:38;;;;;;;13.37;12.57;;;10.60;99.90;;;;;;4999408;28;20288;-80
2021/11/01 09:38:57;;;;;;;12.30;11.60;;;10.70;99.90;;;;;;4998801;28;20253;-79
2021/11/01 09:41:24;;;;;;;12.10;11.43;;;10.80;99.90;;;;;;4998344;28;20218;-79
2021/11/01 09:43:54;;;;;;;11.90;11.20;;;10.90;99.90;;;;;;4999000;28;20192;-81
2021/11/01 09:46:24;;;;;;;12.00;11.30;;;11.00;99.90;;;;;;5000787;28;20201;-79
2021/11/01 09:49:04;;;;;;;11.80;11.10;;;11.10;99.90;;;;;;4998478;28;20230;-81
2021/11/01 09:51:31;;;;;;;12.07;11.33;;;11.20;99.90;;;;;;5003500;28;20284;-80
2021/11/01 09:53:59;;;;;;;12.83;12.13;;;11.30;99.90;;;;;;5002555;28;20228;-80
2021/11/01 09:56:41;;;;;;;8.23;7.73;;;11.30;99.90;;;;;;4997353;28;20335;-79
2021/11/01 09:59:11;;;;;;;8.93;8.43;;;11.30;99.90;;;;;;4995986;28;20220;-79
2021/11/01 10:01:42;;;;;;;4.10;3.67;;;11.30;99.90;;;;;;4999904;28;20199;-80
2021/11/01 10:04:17;;;;;;;8.97;8.37;;;11.20;99.90;;;;;;5000584;28;20236;-79
2021/11/01 10:06:49;;;;;;;10.80;10.10;;;11.30;99.90;;;;;;5002278;28;20205;-79
2021/11/01 10:09:16;;;;;;;11.53;10.93;;;11.30;99.90;;;;;;4999970;28;20848;-80
2021/11/01 10:11:49;;;;;;;5.80;5.40;;;11.40;99.90;;;;;;5001304;28;20297;-79
2021/11/01 10:14:19;;;;;;;4.40;3.07;;;11.40;99.90;;;;;;4998253;28;20265;-78
2021/11/01 10:19:33;;;;;;;3.80;2.87;;;11.30;99.90;;;;;;4997467;28;20218;-79
2021/11/01 10:22:06;;;;;;;2.87;2.67;;;11.30;99.90;;;;;;4998782;28;20199;-80
2021/11/01 10:24:39;;;;;;;2.90;2.70;;;11.20;99.90;;;;;;4997407;28;20237;-78
2021/11/01 10:27:07;;;;;;;3.10;2.83;;;11.20;99.90;;;;;;4996970;28;20206;-79
2021/11/01 10:29:47;;;;;;;3.13;2.83;;;11.20;99.90;;;;;;4999552;28;20306;-80
2021/11/01 10:32:25;;;;;;;3.10;2.90;;;11.20;99.90;;;;;;4996720;28;20314;-81
2021/11/01 10:34:56;;;;;;;5.37;4.87;;;11.20;99.90;;;;;;5000628;28;20579;-80
2021/11/01 10:37:23;;;;;;;3.20;3.00;;;11.20;99.90;;;;;;5004815;28;20199;-81
2021/11/01 10:39:54;;;;;;;3.47;2.97;;;11.20;99.90;;;;;;5001312;28;20213;-79
2021/11/01 10:58:19;;;;;;;3.77;3.47;;;11.20;99.90;;;;;;4999047;28;20202;-81
2021/11/01 11:11:58;;;;;;;3.40;3.10;;;11.30;99.90;;;;;;5009312;28;20197;-81
2021/11/01 11:14:29;;;;;;;2.70;2.60;;;11.30;99.90;;;;;;5008350;28;20705;-80
2021/11/01 11:22:57;;;;;;;4.03;3.80;;;11.30;99.90;;;;;;4996517;28;20699;-81
2021/11/01 11:40:10;;;;;;;2.93;2.73;;;11.70;99.90;;;;;;5007677;28;20221;-79
2021/11/01 11:43:06;;;;;;;2.90;2.70;;;11.70;99.90;;;;;;5011621;28;20206;-80
2021/11/01 11:48:23;;;;;;;3.30;2.70;;;11.50;99.90;;;;;;5009484;28;20199;-79
2021/11/01 11:50:52;;;;;;;2.90;2.70;;;11.40;99.90;;;;;;4997344;28;20264;-80
2021/11/01 11:53:22;;;;;;;3.03;2.77;;;11.40;99.90;;;;;;5008353;28;20285;-82
2021/11/01 11:56:05;;;;;;;2.90;2.70;;;11.30;99.90;;;;;;5009950;28;20225;-80
2021/11/01 11:58:38;;;;;;;11.47;10.87;;;11.20;99.90;;;;;;5006792;28;20229;-81
2021/11/01 12:01:23;;;;;;;11.30;10.60;;;11.20;99.90;;;;;;5003220;28;20234;-81
2021/11/01 12:03:50;;;;;;;11.17;10.57;;;11.20;99.90;;;;;;5011836;28;20195;-79
2021/11/01 12:06:22;;;;;;;11.30;10.70;;;11.20;99.90;;;;;;5006734;28;20197;-80
2021/11/01 12:08:55;;;;;;;11.60;11.00;;;11.20;99.90;;;;;;5014802;28;20229;-81
2021/11/01 12:11:41;;;;;;;10.90;10.30;;;11.20;99.90;;;;;;5003155;28;20620;-79
2021/11/01 12:17:07;;;;;;;10.90;10.30;;;11.30;99.90;;;;;;5019473;28;20189;-81
2021/11/01 12:19:34;;;;;;;10.97;10.37;;;11.30;99.90;;;;;;5002363;28;20567;-81
2021/11/01 12:22:08;;;;;;;11.80;11.20;;;11.30;99.90;;;;;;4998680;28;20229;-81
2021/11/01 12:24:37;;;;;;;11.10;10.30;;;11.30;99.90;;;;;;5000567;28;20244;-80
2021/11/01 12:27:09;;;;;;;10.80;10.20;;;11.40;99.90;;;;;;5000674;28;20259;-80
2021/11/01 12:29:36;;;;;;;2.60;2.40;;;11.50;99.90;;;;;;4995760;28;20222;-80
2021/11/01 12:32:07;;;;;;;2.70;2.50;;;11.50;99.90;;;;;;4996708;28;20202;-80
2021/11/01 12:34:38;;;;;;;6.00;5.63;;;11.60;99.90;;;;;;4995440;28;20218;-81
2021/11/01 12:37:09;;;;;;;4.63;4.33;;;11.60;99.90;;;;;;4998461;28;20731;-81
2021/11/01 12:39:38;;;;;;;3.30;3.00;;;11.60;99.90;;;;;;5007339;28;20234;-81
2021/11/01 12:42:23;;;;;;;3.57;3.20;;;11.60;99.90;;;;;;5008485;28;20198;-80
2021/11/01 12:58:45;;;;;;;2.63;2.43;;;11.50;99.90;;;;;;5009560;28;20222;-79
2021/11/01 13:01:15;;;;;;;2.37;2.27;;;11.40;99.90;;;;;;5011425;28;20277;-82
2021/11/01 13:03:53;;;;;;;2.43;2.33;;;11.40;99.90;;;;;;4996556;28;20618;-80
2021/11/01 13:06:36;;;;;;;2.80;2.60;;;11.40;99.90;;;;;;5008072;28;20206;-81
2021/11/01 13:09:09;;;;;;;2.73;2.53;;;11.40;99.90;;;;;;5023507;28;20319;-81
2021/11/01 13:11:57;;;;;;;2.67;2.57;;;11.30;99.90;;;;;;5008237;28;20300;-79
2021/11/01 13:14:47;;;;;;;3.20;2.90;;;11.30;99.90;;;;;;4998545;28;20726;-81
2021/11/01 13:20:26;;;;;;;4.07;3.67;;;11.30;99.90;;;;;;4994812;28;20236;-80
2021/11/01 13:22:59;;;;;;;3.43;3.13;;;11.30;99.90;;;;;;5005551;28;20202;-80
2021/11/01 13:25:35;;;;;;;6.70;6.20;;;11.20;99.90;;;;;;5009054;28;20201;-80
2021/11/01 13:28:25;;;;;;;3.70;3.50;;;11.10;99.90;;;;;;5011088;28;20219;-80
2021/11/01 13:36:40;;;;;;;11.87;11.20;;;11.10;99.90;;;;;;5002690;28;20201;-80
2021/11/01 13:39:09;;;;;;;12.07;11.27;;;11.00;99.90;;;;;;4995139;28;20224;-79
2021/11/01 13:41:36;;;;;;;12.17;11.47;;;10.90;99.90;;;;;;4999532;28;20225;-78
2021/11/01 13:44:08;;;;;;;11.90;11.30;;;10.90;99.90;;;;;;5009542;28;20205;-81
2021/11/01 13:46:43;;;;;;;10.57;9.87;;;10.90;99.90;;;;;;5005428;28;20216;-79
2021/11/01 13:49:10;;;;;;;10.37;9.67;;;10.90;99.90;;;;;;5008033;28;20216;-80
2021/11/01 13:51:37;;;;;;;10.37;9.77;;;11.00;99.90;;;;;;5010058;28;20198;-80
2021/11/01 13:54:07;;;;;;;11.10;10.40;;;11.00;99.90;;;;;;5004811;28;20205;-82
2021/11/01 13:56:39;;;;;;;10.70;10.00;;;11.00;99.90;;;;;;5006762;28;20226;-81
2021/11/01 13:59:20;;;;;;;11.53;10.80;;;11.00;99.90;;;;;;5008583;28;20220;-81
2021/11/01 14:02:05;;;;;;;11.30;10.60;;;11.00;99.90;;;;;;5007200;28;20217;-81
2021/11/01 14:12:51;;;;;;;11.97;11.27;;;11.10;99.90;;;;;;5002841;28;20253;-82
2021/11/01 14:29:17;;;;;;;11.10;10.50;;;11.20;99.90;;;;;;4997950;28;20570;-80
2021/11/01 14:32:05;;;;;;;11.60;11.00;;;11.20;99.90;;;;;;4999951;28;20199;-82
2021/11/01 14:35:05;;;;;;;11.43;10.73;;;11.20;99.90;;;;;;4996610;28;20209;-81
2021/11/01 15:11:28;;;;;;;11.37;10.60;;;11.20;99.90;;;;;;4992927;28;20200;-81
2021/11/01 15:16:50;;;;;;;11.13;10.43;;;11.40;99.90;;;;;;5019380;28;20212;-76
2021/11/01 15:19:29;;;;;;;10.97;10.27;;;11.40;99.90;;;;;;5009601;28;20271;-77
2021/11/01 15:22:12;;;;;;;10.53;9.90;;;11.50;99.90;;;;;;5018803;28;20247;-78
2021/11/01 15:25:06;;;;;;;10.63;9.93;;;11.50;99.90;;;;;;5012413;28;20212;-78
2021/11/01 15:27:58;;;;;;;10.93;10.23;;;11.50;99.90;;;;;;5036400;28;20196;-77
2021/11/01 15:36:15;;;;;;;10.87;10.17;;;11.50;99.90;;;;;;5031039;28;20197;-79
2021/11/01 16:17:45;;;;;;;14.23;12.73;;;10.60;99.90;;;;;;5035489;28;20849;-76
2021/11/01 16:20:12;;;;;;;12.00;11.10;;;10.50;99.90;;;;;;5051180;28;20198;-76
2021/11/01 16:22:41;;;;;;;11.90;11.00;;;10.40;99.90;;;;;;5027841;28;20226;-76
2021/11/01 16:25:08;;;;;;;12.77;11.77;;;10.30;99.90;;;;;;5044413;28;20216;-75
2021/11/01 16:27:42;;;;;;;12.03;11.13;;;10.20;99.90;;;;;;5045950;28;20250;-77
2021/11/01 16:30:16;;;;;;;10.90;10.20;;;10.10;99.90;;;;;;5050230;28;20202;-77
2021/11/01 16:32:44;;;;;;;11.30;10.37;;;10.10;99.90;;;;;;5031634;28;20224;-78
2021/11/01 16:35:13;;;;;;;10.60;9.90;;;10.00;99.90;;;;;;5052158;28;20278;-77
2021/11/01 16:37:45;;;;;;;10.30;9.70;;;10.00;99.90;;;;;;5046088;28;20233;-76
2021/11/01 16:40:14;;;;;;;10.53;9.83;;;9.90;99.90;;;;;;5031071;28;20205;-76
2021/11/01 16:42:43;;;;;;;11.63;10.93;;;10.00;99.90;;;;;;5014106;28;20270;-75
2021/11/01 16:45:15;;;;;;;11.60;10.90;;;9.90;99.90;;;;;;5016361;28;20197;-75
2021/11/01 16:47:43;;;;;;;11.93;11.13;;;9.90;99.90;;;;;;5015036;28;20527;-75
2021/11/01 16:50:12;;;;;;;11.77;10.97;;;9.80;99.90;;;;;;5025396;28;20241;-79
2021/11/01 16:52:40;;;;;;;11.47;10.70;;;9.80;99.90;;;;;;5050379;28;20261;-77
2021/11/01 16:55:13;;;;;;;11.60;10.70;;;9.80;99.90;;;;;;5046565;28;20199;-79
2021/11/01 16:57:43;;;;;;;11.63;10.93;;;9.80;99.90;;;;;;5051166;28;20278;-80
2021/11/01 17:00:21;;;;;;;11.73;10.93;;;9.80;99.90;;;;;;5045433;28;20191;-79
2021/11/01 17:03:05;;;;;;;11.73;10.90;;;9.80;99.90;;;;;;5050865;28;20305;-78
2021/11/01 17:05:43;;;;;;;11.40;10.70;;;9.70;99.90;;;;;;5034558;28;20282;-79
2021/11/01 17:21:12;;;;;;;11.10;10.40;;;9.60;99.90;;;;;;5017641;28;20199;-79
2021/11/01 17:22:24;;;;;;;13.60;12.80;;;9.50;99.90;;;;;;5049403;28;20218;-77
2021/11/01 17:24:55;;;;;;;12.77;11.93;;;9.50;99.90;;;;;;5037398;28;20216;-79
2021/11/01 17:36:08;;;;;;;11.67;10.93;;;9.70;99.90;;;;;;4999240;28;20295;-78
2021/11/01 18:38:00;;;;;;;15.53;14.33;;;9.40;99.90;;;;;;5030271;28;20206;-77
2021/11/01 18:40:37;;;;;;;16.27;15.07;;;9.30;99.90;;;;;;5020572;28;20205;-77
2021/11/01 18:43:13;;;;;;;15.40;14.20;;;9.20;99.90;;;;;;5013990;28;20215;-77
2021/11/01 18:51:19;;;;;;;20.30;18.50;;;9.00;99.90;;;;;;5028643;28;20180;-78
2021/11/01 18:53:56;;;;;;;22.57;20.37;;;9.00;99.90;;;;;;5031095;28;20253;-78
2021/11/01 18:56:30;;;;;;;22.40;20.27;;;8.90;99.90;;;;;;5028628;28;20200;-77
2021/11/01 18:58:58;;;;;;;20.73;18.83;;;8.90;99.90;;;;;;5029313;28;20199;-78
2021/11/01 19:01:27;;;;;;;20.20;18.43;;;8.80;99.90;;;;;;5031174;28;20210;-78
2021/11/01 19:03:56;;;;;;;19.23;17.73;;;8.70;99.90;;;;;;5045542;28;20223;-77
2021/11/01 19:06:33;;;;;;;18.60;17.00;;;8.60;99.90;;;;;;5033523;28;20243;-78
2021/11/01 20:04:41;;;;;;;17.03;15.43;;;7.40;99.90;;;;;;5026935;28;20200;-78
2021/11/01 20:08:04;;;;;;;14.40;13.00;;;7.30;99.90;;;;;;5023038;28;20235;-77
2021/11/01 20:12:56;;;;;;;13.60;12.17;;;7.20;99.90;;;;;;5036790;28;20768;-76
2021/11/01 21:25:21;;;;;;;16.80;15.60;;;5.80;99.90;;;;;;5041238;28;20195;-80
2021/11/01 21:27:49;;;;;;;17.53;16.13;;;5.90;99.90;;;;;;5020247;28;20198;-79
2021/11/01 21:30:17;;;;;;;17.73;16.23;;;5.90;99.90;;;;;;5026540;28;20218;-79
2021/11/01 21:32:45;;;;;;;18.37;16.80;;;5.90;99.90;;;;;;5022646;28;20220;-79
2021/11/01 21:35:15;;;;;;;16.73;15.53;;;6.00;99.90;;;;;;5024292;28;20200;-79
2021/11/01 21:37:43;;;;;;;16.67;15.47;;;6.00;99.90;;;;;;5026604;28;20250;-81
2021/11/01 21:40:12;;;;;;;17.23;15.97;;;6.10;99.90;;;;;;5024368;28;20203;-80
2021/11/01 21:42:42;;;;;;;16.37;15.17;;;6.00;99.90;;;;;;5025499;28;20223;-80
2021/11/01 21:45:10;;;;;;;16.90;15.60;;;6.00;99.90;;;;;;5022116;28;20562;-80
2021/11/01 21:47:38;;;;;;;17.10;15.77;;;6.00;99.90;;;;;;5025236;28;20738;-81
2021/11/01 21:50:07;;;;;;;16.30;15.10;;;5.90;99.90;;;;;;5021258;28;20206;-79
2021/11/01 21:52:36;;;;;;;16.73;15.53;;;5.90;99.90;;;;;;5016234;28;20229;-80
2021/11/01 21:55:05;;;;;;;16.87;15.57;;;5.80;99.90;;;;;;5027427;28;20325;-80
2021/11/01 21:57:36;;;;;;;16.93;15.73;;;5.80;99.90;;;;;;5020816;28;20201;-79
2021/11/01 22:16:47;;;;;;;18.20;16.60;;;5.80;99.90;;;;;;5022979;28;20657;-80
2021/11/01 22:22:13;;;;;;;9.90;8.03;;;5.90;99.90;;;;;;5015705;28;20212;-80
2021/11/01 22:24:54;;;;;;;8.87;7.97;;;6.00;99.90;;;;;;5025395;28;20207;-79